createdAt,value
2019-03-04T00:02:23.885Z,9.70
2019-03-04T00:04:53.175Z,9.60
2019-03-04T00:07:22.475Z,9.60
2019-03-04T00:09:51.774Z,9.50
2019-03-04T00:12:21.070Z,9.50
2019-03-04T00:14:50.393Z,9.40
2019-03-04T00:17:19.684Z,9.40
2019-03-04T00:19:48.980Z,9.40
2019-03-04T00:22:18.277Z,9.40
2019-03-04T00:24:47.572Z,9.40
2019-03-04T00:27:16.868Z,9.50
2019-03-04T00:29:48.584Z,9.60
2019-03-04T00:32:17.900Z,9.60
2019-03-04T00:34:47.328Z,9.70
2019-03-04T00:37:16.704Z,9.70
2019-03-04T00:39:46.000Z,9.80
2019-03-04T00:42:15.406Z,9.80
2019-03-04T00:44:45.542Z,9.80
2019-03-04T00:47:14.842Z,9.80
2019-03-04T00:49:44.137Z,9.80
2019-03-04T00:52:13.436Z,9.90
2019-03-04T00:54:42.736Z,9.90
2019-03-04T00:57:13.020Z,9.90
2019-03-04T00:59:42.316Z,9.90
2019-03-04T01:02:11.619Z,10.00
2019-03-04T01:04:40.912Z,9.90
2019-03-04T01:07:10.207Z,10.00
2019-03-04T01:09:39.520Z,10.00
2019-03-04T01:12:08.815Z,10.00
2019-03-04T01:14:38.119Z,10.10
2019-03-04T01:17:07.589Z,10.10
2019-03-04T01:19:36.888Z,10.10
2019-03-04T01:22:07.561Z,10.10
2019-03-04T01:24:36.863Z,10.00
2019-03-04T01:27:06.252Z,10.00
2019-03-04T01:29:35.580Z,10.00
2019-03-04T01:32:05.693Z,10.00
2019-03-04T01:34:34.993Z,10.00
2019-03-04T01:37:04.329Z,10.00
2019-03-04T01:39:33.671Z,10.00
2019-03-04T01:42:03.507Z,10.00
2019-03-04T01:44:32.817Z,10.00
2019-03-04T01:47:02.188Z,10.00
2019-03-04T01:49:31.490Z,10.00
2019-03-04T01:52:00.784Z,9.90
2019-03-04T01:54:30.155Z,9.90
2019-03-04T01:56:59.448Z,9.90
2019-03-04T01:59:30.505Z,10.00
2019-03-04T02:01:59.905Z,10.10
2019-03-04T02:04:29.212Z,10.20
2019-03-04T02:06:58.512Z,10.20
2019-03-04T02:09:27.980Z,10.20
2019-03-04T02:11:57.301Z,10.20
2019-03-04T02:14:26.596Z,10.20
2019-03-04T02:16:55.892Z,10.30
2019-03-04T02:19:25.228Z,10.30
2019-03-04T02:21:54.581Z,10.30
2019-03-04T02:24:25.348Z,10.20
2019-03-04T02:26:55.120Z,10.20
2019-03-04T02:29:25.398Z,10.20
2019-03-04T02:31:54.696Z,10.30
2019-03-04T02:34:24.814Z,10.30
2019-03-04T02:36:54.623Z,10.30
2019-03-04T02:39:23.926Z,10.40
2019-03-04T02:41:53.244Z,10.30
2019-03-04T02:44:22.613Z,10.30
2019-03-04T02:46:51.925Z,10.40
2019-03-04T02:49:21.297Z,10.40
2019-03-04T02:51:50.593Z,10.40
2019-03-04T02:54:20.716Z,10.40
2019-03-04T02:56:50.013Z,10.50
2019-03-04T02:59:19.315Z,10.60
2019-03-04T03:01:48.613Z,10.60
2019-03-04T03:04:17.912Z,10.60
2019-03-04T03:06:47.233Z,10.60
2019-03-04T03:09:16.536Z,10.70
2019-03-04T03:11:46.756Z,10.70
2019-03-04T03:14:16.054Z,10.70
2019-03-04T03:16:45.355Z,10.70
2019-03-04T03:19:14.675Z,10.70
2019-03-04T03:21:44.070Z,10.70
2019-03-04T03:24:13.365Z,10.60
2019-03-04T03:26:42.671Z,10.50
2019-03-04T03:29:11.978Z,10.50
2019-03-04T03:31:41.273Z,10.50
2019-03-04T03:34:10.601Z,10.50
2019-03-04T03:36:40.844Z,10.50
2019-03-04T03:39:10.188Z,10.50
2019-03-04T03:41:39.489Z,10.50
2019-03-04T03:44:08.790Z,10.40
2019-03-04T03:46:38.133Z,10.40
2019-03-04T03:49:08.428Z,10.40
2019-03-04T03:51:37.727Z,10.40
2019-03-04T03:54:07.021Z,10.40
2019-03-04T03:56:36.493Z,10.40
2019-03-04T03:59:05.787Z,10.40
2019-03-04T04:01:35.661Z,10.40
2019-03-04T04:04:04.963Z,10.30
2019-03-04T04:06:34.257Z,10.30
2019-03-04T04:09:04.328Z,10.30
2019-03-04T04:11:35.197Z,10.30
2019-03-04T04:14:04.713Z,10.30
2019-03-04T04:16:34.013Z,10.40
2019-03-04T04:19:03.312Z,10.40
2019-03-04T04:21:32.964Z,10.40
2019-03-04T04:24:02.436Z,10.30
2019-03-04T04:26:31.753Z,10.40
2019-03-04T04:29:02.758Z,10.40
2019-03-04T04:31:32.057Z,10.50
2019-03-04T04:34:01.369Z,10.50
2019-03-04T04:36:30.670Z,10.50
2019-03-04T04:39:01.603Z,10.60
2019-03-04T04:41:32.700Z,10.60
2019-03-04T04:44:02.028Z,10.60
2019-03-04T04:46:49.232Z,10.60
2019-03-04T04:49:18.643Z,10.50
2019-03-04T04:51:48.113Z,10.60
2019-03-04T04:54:17.412Z,10.50
2019-03-04T04:56:46.707Z,10.50
2019-03-04T04:59:16.004Z,10.60
2019-03-04T05:01:45.316Z,10.60
2019-03-04T05:04:14.613Z,10.60
2019-03-04T05:06:43.912Z,10.60
2019-03-04T05:09:13.212Z,10.60
2019-03-04T05:11:42.512Z,10.70
2019-03-04T05:14:13.265Z,10.70
2019-03-04T05:16:42.556Z,10.80
2019-03-04T05:19:11.851Z,10.90
2019-03-04T05:21:41.156Z,11.00
2019-03-04T05:24:10.456Z,10.90
2019-03-04T05:26:39.780Z,10.90
2019-03-04T05:29:09.076Z,10.90
2019-03-04T05:31:38.372Z,11.10
2019-03-04T05:34:07.672Z,11.00
2019-03-04T05:36:37.944Z,11.00
2019-03-04T05:39:09.688Z,11.00
2019-03-04T05:41:38.988Z,11.00
2019-03-04T05:44:08.311Z,11.10
2019-03-04T05:46:37.603Z,11.00
2019-03-04T05:49:06.904Z,11.00
2019-03-04T05:51:36.204Z,11.00
2019-03-04T05:54:05.506Z,11.00
2019-03-04T05:56:34.816Z,10.90
2019-03-04T05:59:04.193Z,11.00
2019-03-04T06:01:33.516Z,11.00
2019-03-04T06:04:05.156Z,11.10
2019-03-04T06:06:45.936Z,11.10
2019-03-04T06:09:15.232Z,11.10
2019-03-04T06:11:44.532Z,11.10
2019-03-04T06:14:13.908Z,11.20
2019-03-04T06:16:47.251Z,11.00
2019-03-04T06:19:14.316Z,11.00
2019-03-04T06:21:43.616Z,11.10
2019-03-04T06:24:12.915Z,11.00
2019-03-04T06:26:42.216Z,11.00
2019-03-04T06:29:11.534Z,11.10
2019-03-04T06:31:40.832Z,11.00
2019-03-04T06:34:10.132Z,11.00
2019-03-04T06:36:39.436Z,11.00
2019-03-04T06:39:08.900Z,11.10
2019-03-04T06:41:39.373Z,11.10
2019-03-04T06:44:08.672Z,11.10
2019-03-04T06:46:37.971Z,11.10
2019-03-04T06:49:07.488Z,11.10
2019-03-04T06:51:38.422Z,11.10
2019-03-04T06:54:13.855Z,11.00
2019-03-04T06:56:49.092Z,11.00
2019-03-04T06:59:45.554Z,11.10
2019-03-04T07:02:26.704Z,11.20
2019-03-04T07:05:19.468Z,11.10
2019-03-04T07:07:48.756Z,11.20
2019-03-04T07:10:18.056Z,11.20
2019-03-04T07:12:47.360Z,11.20
2019-03-04T07:15:16.833Z,11.20
2019-03-04T07:17:46.156Z,11.20
2019-03-04T07:20:20.946Z,11.30
2019-03-04T07:22:50.889Z,11.30
2019-03-04T07:25:20.192Z,11.30
2019-03-04T07:27:49.489Z,11.40
2019-03-04T07:30:20.024Z,11.40
2019-03-04T07:32:49.403Z,11.30
2019-03-04T07:35:18.711Z,11.20
2019-03-04T07:37:49.548Z,11.10
2019-03-04T07:40:21.292Z,11.00
2019-03-04T07:42:51.080Z,10.90
2019-03-04T07:45:20.385Z,10.90
2019-03-04T07:47:49.692Z,10.70
2019-03-04T07:50:18.980Z,10.50
2019-03-04T07:52:51.428Z,10.40
2019-03-04T07:55:20.730Z,10.40
2019-03-04T07:57:50.030Z,10.50
2019-03-04T08:00:19.332Z,10.70
2019-03-04T08:02:48.640Z,10.80
2019-03-04T08:05:17.956Z,10.90
2019-03-04T08:07:56.230Z,10.80
2019-03-04T08:10:43.511Z,10.80
2019-03-04T08:13:19.016Z,10.80
2019-03-04T08:15:49.391Z,10.80
2019-03-04T08:18:18.680Z,10.70
2019-03-04T08:20:48.948Z,10.70
2019-03-04T08:23:18.252Z,10.70
2019-03-04T08:25:48.617Z,10.70
2019-03-04T08:28:17.937Z,9.30
2019-03-04T08:30:47.232Z,8.40
2019-03-04T08:33:16.560Z,7.90
2019-03-04T08:35:45.852Z,7.50
2019-03-04T08:38:15.140Z,7.20
2019-03-04T08:40:44.460Z,6.70
2019-03-04T08:43:15.620Z,6.40
2019-03-04T08:45:45.908Z,6.30
2019-03-04T08:48:15.372Z,6.30
2019-03-04T08:50:44.669Z,6.40
2019-03-04T08:53:14.061Z,6.50
2019-03-04T08:55:45.313Z,6.50
2019-03-04T08:58:14.369Z,6.60
2019-03-04T09:00:43.696Z,6.60
2019-03-04T09:03:12.995Z,6.70
2019-03-04T09:05:42.285Z,6.80
2019-03-04T09:08:11.577Z,6.90
2019-03-04T09:10:41.536Z,7.00
2019-03-04T09:13:10.833Z,7.20
2019-03-04T09:15:40.128Z,7.50
2019-03-04T09:18:09.428Z,7.80
2019-03-04T09:20:38.721Z,8.20
2019-03-04T09:23:08.039Z,8.40
2019-03-04T09:25:40.313Z,8.80
2019-03-04T09:28:10.252Z,9.50
2019-03-04T09:30:39.556Z,10.20
2019-03-04T09:33:09.755Z,10.50
2019-03-04T09:35:39.061Z,10.90
2019-03-04T09:38:08.358Z,10.50
2019-03-04T09:40:57.009Z,10.40
2019-03-04T09:43:27.988Z,10.50
2019-03-04T09:45:57.290Z,11.00
2019-03-04T09:48:26.585Z,11.30
2019-03-04T09:50:55.880Z,11.40
2019-03-04T09:53:25.195Z,11.60
2019-03-04T09:55:54.496Z,11.60
2019-03-04T09:58:23.861Z,11.80
2019-03-04T10:01:02.196Z,12.00
2019-03-04T10:03:44.268Z,11.70
2019-03-04T10:06:28.896Z,11.80
2019-03-04T10:09:13.511Z,12.20
2019-03-04T10:11:54.899Z,11.70
2019-03-04T10:14:35.932Z,11.70
2019-03-04T10:17:20.397Z,11.90
2019-03-04T10:19:53.404Z,11.30
2019-03-04T10:22:28.660Z,11.70
2019-03-04T10:25:10.029Z,11.80
2019-03-04T10:27:48.272Z,11.90
2019-03-04T10:30:35.909Z,11.70
2019-03-04T10:33:31.741Z,12.20
2019-03-04T10:36:07.716Z,11.80
2019-03-04T10:38:45.551Z,11.90
2019-03-04T10:41:29.756Z,11.90
2019-03-04T10:44:25.036Z,12.30
2019-03-04T10:46:55.897Z,12.60
2019-03-04T10:49:26.532Z,13.00
2019-03-04T10:51:56.172Z,12.40
2019-03-04T10:54:26.546Z,11.70
2019-03-04T10:56:55.848Z,11.20
2019-03-04T10:59:36.950Z,11.10
2019-03-04T11:02:06.249Z,10.80
2019-03-04T11:04:35.552Z,10.60
2019-03-04T11:07:04.867Z,10.40
2019-03-04T11:09:34.148Z,10.30
2019-03-04T11:12:04.388Z,9.90
2019-03-04T11:14:33.680Z,9.80
2019-03-04T11:17:02.976Z,10.10
2019-03-04T11:19:32.277Z,10.90
2019-03-04T11:22:01.576Z,11.30
2019-03-04T11:24:30.879Z,12.10
2019-03-04T11:27:00.185Z,12.60
2019-03-04T11:29:30.024Z,12.70
2019-03-04T11:31:59.325Z,12.70
2019-03-04T11:34:28.624Z,12.50
2019-03-04T11:36:57.920Z,12.70
2019-03-04T11:39:34.712Z,12.00
2019-03-04T11:42:04.021Z,11.50
2019-03-04T11:44:33.576Z,11.60
2019-03-04T11:47:03.200Z,11.50
2019-03-04T11:49:32.501Z,11.20
2019-03-04T11:52:01.828Z,11.00
2019-03-04T11:54:31.124Z,10.70
2019-03-04T11:57:00.596Z,10.50
2019-03-04T11:59:31.064Z,10.50
2019-03-04T12:02:00.392Z,10.50
2019-03-04T12:04:29.694Z,10.40
2019-03-04T12:06:58.992Z,10.40
2019-03-04T12:09:28.319Z,10.40
2019-03-04T12:11:57.620Z,10.50
2019-03-04T12:14:26.924Z,10.40
2019-03-04T12:16:56.284Z,10.40
2019-03-04T12:19:25.767Z,10.50
2019-03-04T12:21:55.210Z,10.50
2019-03-04T12:24:24.509Z,10.40
2019-03-04T12:26:53.800Z,10.40
2019-03-04T12:29:23.107Z,10.30
2019-03-04T12:32:00.032Z,10.30
2019-03-04T12:34:29.328Z,10.30
2019-03-04T12:36:58.629Z,10.30
2019-03-04T12:39:27.924Z,10.50
2019-03-04T12:41:57.223Z,10.80
2019-03-04T12:44:26.544Z,10.90
2019-03-04T12:46:57.587Z,10.90
2019-03-04T12:49:26.900Z,10.90
2019-03-04T12:51:56.205Z,10.80
2019-03-04T12:54:25.504Z,10.60
2019-03-04T12:56:54.804Z,10.50
2019-03-04T12:59:24.108Z,10.50
2019-03-04T13:01:53.422Z,10.40
2019-03-04T13:04:22.715Z,10.40
2019-03-04T13:06:52.019Z,10.40
2019-03-04T13:09:21.317Z,10.30
2019-03-04T13:11:50.612Z,10.20
2019-03-04T13:14:20.545Z,10.20
2019-03-04T13:16:49.839Z,10.20
2019-03-04T13:19:19.143Z,10.00
2019-03-04T13:21:48.444Z,8.50
2019-03-04T13:24:17.736Z,6.80
2019-03-04T13:26:47.047Z,5.90
2019-03-04T13:29:16.352Z,5.50
2019-03-04T13:31:45.650Z,5.50
2019-03-04T13:34:15.644Z,5.50
2019-03-04T13:36:44.940Z,5.40
2019-03-04T13:39:14.260Z,5.40
2019-03-04T13:41:43.554Z,5.50
2019-03-04T13:44:12.854Z,5.60
2019-03-04T13:46:42.148Z,5.70
2019-03-04T13:49:13.464Z,5.80
2019-03-04T13:51:44.306Z,5.80
2019-03-04T13:54:13.592Z,5.90
2019-03-04T13:56:42.904Z,5.90
2019-03-04T13:59:12.196Z,5.80
2019-03-04T14:01:41.492Z,5.80
2019-03-04T14:04:10.793Z,5.80
2019-03-04T14:06:54.721Z,5.80
2019-03-04T14:09:24.051Z,5.90
2019-03-04T14:11:53.344Z,6.00
2019-03-04T14:14:22.640Z,6.10
2019-03-04T14:16:51.936Z,6.10
2019-03-04T14:19:21.252Z,6.10
2019-03-04T14:21:50.549Z,6.20
2019-03-04T14:24:19.849Z,6.20
2019-03-04T14:26:49.142Z,6.20
2019-03-04T14:29:18.432Z,6.20
2019-03-04T14:31:47.724Z,6.20
2019-03-04T14:34:17.016Z,6.20
2019-03-04T14:36:46.332Z,6.30
2019-03-04T14:39:15.629Z,6.30
2019-03-04T14:41:44.968Z,6.40
2019-03-04T14:44:15.036Z,6.50
2019-03-04T14:46:44.328Z,6.80
2019-03-04T14:49:13.624Z,7.80
2019-03-04T14:51:43.766Z,9.70
2019-03-04T14:54:13.080Z,11.30
2019-03-04T14:56:42.378Z,11.50
2019-03-04T14:59:11.772Z,10.30
2019-03-04T15:01:41.072Z,9.60
2019-03-04T15:04:10.472Z,9.70
2019-03-04T15:06:39.780Z,9.20
2019-03-04T15:09:11.181Z,9.00
2019-03-04T15:11:40.544Z,8.40
2019-03-04T15:14:09.849Z,7.90
2019-03-04T15:16:39.137Z,8.10
2019-03-04T15:19:09.897Z,7.80
2019-03-04T15:21:39.661Z,7.40
2019-03-04T15:24:08.965Z,7.30
2019-03-04T15:26:43.869Z,7.30
2019-03-04T15:29:09.248Z,7.30
2019-03-04T15:31:38.568Z,7.50
2019-03-04T15:34:07.864Z,7.40
2019-03-04T15:36:37.176Z,7.20
2019-03-04T15:39:08.954Z,6.90
2019-03-04T15:41:40.389Z,6.90
2019-03-04T15:44:09.981Z,6.90
2019-03-04T15:46:39.274Z,6.90
2019-03-04T15:49:08.569Z,6.90
2019-03-04T15:51:37.868Z,6.90
2019-03-04T15:54:07.284Z,6.90
2019-03-04T15:56:36.968Z,7.00
2019-03-04T15:59:06.264Z,6.90
2019-03-04T16:01:36.629Z,6.90
2019-03-04T16:04:05.928Z,6.80
2019-03-04T16:06:35.224Z,6.80
2019-03-04T16:09:07.688Z,6.70
2019-03-04T16:11:37.157Z,6.60
2019-03-04T16:14:06.448Z,6.60
2019-03-04T16:16:36.273Z,6.60
2019-03-04T16:19:05.572Z,6.60
2019-03-04T16:21:34.869Z,6.80
2019-03-04T16:24:04.244Z,7.50
2019-03-04T16:26:33.539Z,7.40
2019-03-04T16:29:02.832Z,7.10
2019-03-04T16:31:32.148Z,7.00
2019-03-04T16:34:01.447Z,6.90
2019-03-04T16:36:30.737Z,6.90
2019-03-04T16:39:00.929Z,6.80
2019-03-04T16:41:31.848Z,6.80
2019-03-04T16:44:01.162Z,6.80
2019-03-04T16:46:30.543Z,6.80
2019-03-04T16:48:59.838Z,6.80
2019-03-04T16:51:29.131Z,6.70
2019-03-04T16:53:58.428Z,6.70
2019-03-04T16:56:27.970Z,6.70
2019-03-04T16:58:58.124Z,6.70
2019-03-04T17:01:27.412Z,6.70
2019-03-04T17:03:56.709Z,6.70
2019-03-04T17:06:26.008Z,6.70
2019-03-04T17:08:55.300Z,6.60
2019-03-04T17:11:24.608Z,6.60
2019-03-04T17:13:53.908Z,6.70
2019-03-04T17:16:23.272Z,6.60
2019-03-04T17:18:52.569Z,6.60
2019-03-04T17:21:21.880Z,6.60
2019-03-04T17:23:51.179Z,6.50
2019-03-04T17:26:20.761Z,6.50
2019-03-04T17:28:50.069Z,6.50
2019-03-04T17:31:19.364Z,6.50
2019-03-04T17:33:48.656Z,6.50
2019-03-04T17:36:18.607Z,6.50
2019-03-04T17:38:47.905Z,6.40
2019-03-04T17:41:17.192Z,6.40
2019-03-04T17:43:46.488Z,6.40
2019-03-04T17:46:15.809Z,6.30
2019-03-04T17:48:45.104Z,6.30
2019-03-04T17:51:14.395Z,6.20
2019-03-04T17:53:44.107Z,6.20
2019-03-04T17:56:13.464Z,6.20
2019-03-04T17:58:44.712Z,6.10
2019-03-04T18:01:14.177Z,6.10
2019-03-04T18:03:43.481Z,6.10
2019-03-04T18:06:12.776Z,6.10
2019-03-04T18:08:42.076Z,6.00
2019-03-04T18:11:11.681Z,6.00
2019-03-04T18:13:40.976Z,6.00
2019-03-04T18:16:11.340Z,5.90
2019-03-04T18:18:40.637Z,5.90
2019-03-04T18:21:09.952Z,6.00
2019-03-04T18:23:39.245Z,6.00
2019-03-04T18:26:12.516Z,6.00
2019-03-04T18:29:05.248Z,6.00
2019-03-04T18:31:40.442Z,5.90
2019-03-04T18:34:21.832Z,5.90
2019-03-04T18:37:10.700Z,5.80
2019-03-04T18:39:46.076Z,5.80
2019-03-04T18:42:30.973Z,5.80
2019-03-04T18:45:03.416Z,5.80
2019-03-04T18:47:55.388Z,5.70
2019-03-04T18:50:24.856Z,5.80
2019-03-04T18:52:54.148Z,5.70
2019-03-04T18:55:23.447Z,5.70
2019-03-04T18:57:52.743Z,5.70
2019-03-04T19:00:27.352Z,5.60
2019-03-04T19:02:56.828Z,5.50
2019-03-04T19:05:27.092Z,5.50
2019-03-04T19:07:56.387Z,5.50
2019-03-04T19:10:25.851Z,5.30
2019-03-04T19:12:55.216Z,5.40
2019-03-04T19:15:25.043Z,5.30
2019-03-04T19:17:54.335Z,5.40
2019-03-04T19:20:23.652Z,5.40
2019-03-04T19:22:52.952Z,5.40
2019-03-04T19:25:22.256Z,5.40
2019-03-04T19:27:51.556Z,5.40
2019-03-04T19:30:21.036Z,5.40
2019-03-04T19:32:50.539Z,5.40
2019-03-04T19:35:19.821Z,5.40
2019-03-04T19:37:49.125Z,5.40
2019-03-04T19:40:18.420Z,5.50
2019-03-04T19:42:47.716Z,5.40
2019-03-04T19:45:22.265Z,5.50
2019-03-04T19:47:51.993Z,5.50
2019-03-04T19:50:21.293Z,5.40
2019-03-04T19:52:50.580Z,5.40
2019-03-04T19:55:20.068Z,5.30
2019-03-04T19:57:49.391Z,5.20
2019-03-04T20:00:25.172Z,5.20
2019-03-04T20:02:58.297Z,5.20
2019-03-04T20:05:31.067Z,5.20
2019-03-04T20:08:00.848Z,5.10
2019-03-04T20:10:31.575Z,5.10
2019-03-04T20:13:00.871Z,5.20
2019-03-04T20:15:34.619Z,5.20
2019-03-04T20:18:04.083Z,5.10
2019-03-04T20:20:33.435Z,5.20
2019-03-04T20:23:02.802Z,5.20
2019-03-04T20:25:32.164Z,5.20
2019-03-04T20:28:01.464Z,5.20
2019-03-04T20:30:32.030Z,5.20
2019-03-04T20:33:01.332Z,5.20
2019-03-04T20:35:30.629Z,5.10
2019-03-04T20:38:09.204Z,5.10
2019-03-04T20:40:38.501Z,5.10
2019-03-04T20:43:07.796Z,5.10
2019-03-04T20:45:37.101Z,5.10
2019-03-04T20:48:06.736Z,5.10
2019-03-04T20:50:36.060Z,5.10
2019-03-04T20:53:05.360Z,5.10
2019-03-04T20:55:34.656Z,5.10
2019-03-04T20:58:04.215Z,5.10
2019-03-04T21:00:39.344Z,5.10
2019-03-04T21:03:09.804Z,5.20
2019-03-04T21:05:39.263Z,5.10
2019-03-04T21:08:08.796Z,5.20
2019-03-04T21:10:38.280Z,5.20
2019-03-04T21:13:16.016Z,5.20
2019-03-04T21:15:45.536Z,5.20
2019-03-04T21:18:14.928Z,5.20
2019-03-04T21:20:45.967Z,5.10
2019-03-04T21:23:15.262Z,5.10
2019-03-04T21:26:02.540Z,5.10
2019-03-04T21:28:34.912Z,5.20
2019-03-04T21:31:19.500Z,5.20
2019-03-04T21:34:11.241Z,5.30
2019-03-04T21:36:49.830Z,5.30
2019-03-04T21:39:22.202Z,5.20
2019-03-04T21:41:57.467Z,5.10
2019-03-04T21:44:46.548Z,5.10
2019-03-04T21:47:19.803Z,5.10
2019-03-04T21:49:50.928Z,5.10
2019-03-04T21:52:28.944Z,5.10
2019-03-04T21:54:59.474Z,5.00
2019-03-04T21:57:31.806Z,4.90
2019-03-04T22:00:01.262Z,5.00
2019-03-04T22:02:47.753Z,5.20
2019-03-04T22:05:20.373Z,5.20
2019-03-04T22:07:50.157Z,5.30
2019-03-04T22:10:19.756Z,5.30
2019-03-04T22:12:49.124Z,5.30
2019-03-04T22:15:20.034Z,5.30
2019-03-04T22:17:49.324Z,5.30
2019-03-04T22:20:18.688Z,5.30
2019-03-04T22:22:48.131Z,5.30
2019-03-04T22:25:17.488Z,5.40
2019-03-04T22:27:46.784Z,5.40
2019-03-04T22:30:19.833Z,5.40
2019-03-04T22:32:49.170Z,5.40
2019-03-04T22:35:18.615Z,5.50
2019-03-04T22:37:48.173Z,5.40
2019-03-04T22:40:22.285Z,5.40
2019-03-04T22:42:51.570Z,5.40
2019-03-04T22:45:21.633Z,5.40
2019-03-04T22:47:51.963Z,5.40
2019-03-04T22:50:22.206Z,5.30
2019-03-04T22:52:52.456Z,5.30
2019-03-04T22:55:27.380Z,5.30
2019-03-04T22:57:56.686Z,5.30
2019-03-04T23:00:42.632Z,5.40
2019-03-04T23:03:13.424Z,5.50
2019-03-04T23:05:44.558Z,5.60
2019-03-04T23:08:15.296Z,5.60
2019-03-04T23:10:46.832Z,5.70
2019-03-04T23:13:28.299Z,5.70
2019-03-04T23:15:59.734Z,5.70
2019-03-04T23:18:29.052Z,5.70
2019-03-04T23:20:58.344Z,5.70
2019-03-04T23:23:27.641Z,5.70
2019-03-04T23:25:56.936Z,5.60
2019-03-04T23:28:26.292Z,5.60
2019-03-04T23:30:55.596Z,5.70
2019-03-04T23:33:24.888Z,5.80
2019-03-04T23:35:54.184Z,5.80
2019-03-04T23:38:23.480Z,5.70
2019-03-04T23:40:52.776Z,5.70
2019-03-04T23:43:23.254Z,5.70
2019-03-04T23:45:52.552Z,5.50
2019-03-04T23:48:21.844Z,5.20
2019-03-04T23:51:10.481Z,4.90
2019-03-04T23:53:39.797Z,4.80
2019-03-04T23:56:09.088Z,4.60
2019-03-04T23:58:38.388Z,4.50
